Halfway's Hourly Summary for Thursday, July 5, 2018
Hour Temp
(f)
RH
(%)
Solar Rad.
(MJ/m2)
Rainfall
(in)
Wind
(mph)
7/5/2018 12:00 AM 80 40 0 0 11.6
7/5/2018 1:00 AM 78 50 0 0 11.2
7/5/2018 2:00 AM 75 57 0 0 11.04
7/5/2018 3:00 AM 73 65 0 0 8.79
7/5/2018 4:00 AM 71 71 0 0 6.09
7/5/2018 5:00 AM 69 76 0 0 4.37
7/5/2018 6:00 AM 69 79 0 0 5.24
7/5/2018 7:00 AM 68 80 0.02 0 4.97
7/5/2018 8:00 AM 68 77 0.37 0 5.63
7/5/2018 9:00 AM 71 72 1.04 0 8.84
7/5/2018 10:00 AM 73 67 1.37 0 9.86
7/5/2018 11:00 AM 74 63 1.52 0 8.9
7/5/2018 12:00 PM 77 54 2.08 0 8.94
7/5/2018 1:00 PM 80 48 2.78 0 9.84
7/5/2018 2:00 PM 83 43 3.1 0 12.29
7/5/2018 3:00 PM 84 39 3.36 0 14.43
7/5/2018 4:00 PM 85 36 3.27 0 15
7/5/2018 5:00 PM 86 35 2.71 0 14.18
7/5/2018 6:00 PM 87 34 2.32 0 12.96
7/5/2018 7:00 PM 85 36 1.39 0 11.8
7/5/2018 8:00 PM 85 36 0.81 0 11.97
7/5/2018 9:00 PM 82 38 0.09 0 9.92
7/5/2018 10:00 PM 79 40 0 0 6.18
7/5/2018 11:00 PM 76 47 0 0 4.62
Data Summary 77 53 26.23 0.00 9.53